createdAt,value
2023-12-16T09:01:29.251Z,97468.00
2023-12-16T09:02:06.754Z,97474.00
2023-12-16T09:03:06.688Z,97475.00
2023-12-16T09:04:06.725Z,97472.00
2023-12-16T09:05:06.661Z,97472.00
2023-12-16T09:06:06.676Z,97469.00
2023-12-16T09:07:06.687Z,97470.00
2023-12-16T09:08:06.641Z,97474.00
2023-12-16T09:09:07.760Z,97476.00
2023-12-16T09:10:06.677Z,97476.00
2023-12-16T09:11:06.648Z,97473.00
2023-12-16T09:12:06.654Z,97467.00
2023-12-16T09:13:06.699Z,97459.00
2023-12-16T09:14:06.685Z,97454.00
2023-12-16T09:15:06.670Z,97443.00
2023-12-16T09:16:06.720Z,97433.00
2023-12-16T09:17:06.650Z,97424.00
2023-12-16T09:18:07.256Z,97419.00
2023-12-16T09:19:06.690Z,97423.00
2023-12-16T09:20:07.022Z,97428.00
2023-12-16T09:21:06.662Z,97436.00
2023-12-16T09:22:06.738Z,97440.00
2023-12-16T09:23:06.797Z,97443.00
2023-12-16T09:24:06.875Z,97448.00
2023-12-16T09:25:06.982Z,97454.00
2023-12-16T09:26:07.011Z,97456.00
2023-12-16T09:27:07.060Z,97463.00
2023-12-16T09:28:07.198Z,97466.00
2023-12-16T09:29:07.353Z,97472.00
2023-12-16T09:30:07.334Z,97474.00
2023-12-16T09:31:07.485Z,97476.00
2023-12-16T09:32:14.794Z,97479.00
2023-12-16T09:33:14.839Z,97480.00
2023-12-16T09:34:14.817Z,97482.00
2023-12-16T09:35:14.801Z,97481.00
2023-12-16T09:36:15.838Z,97483.00
2023-12-16T09:37:14.840Z,97478.00
2023-12-16T09:38:14.786Z,97475.00
2023-12-16T09:39:14.785Z,97466.00
2023-12-16T09:40:14.861Z,97458.00
2023-12-16T09:41:14.792Z,97453.00
2023-12-16T09:42:14.795Z,97454.00
2023-12-16T09:43:14.836Z,97458.00
2023-12-16T09:44:14.788Z,97460.00
2023-12-16T09:45:14.797Z,97455.00
2023-12-16T09:46:14.845Z,97447.00
2023-12-16T09:47:14.784Z,97439.00
2023-12-16T09:48:14.879Z,97433.00
2023-12-16T09:49:14.853Z,97436.00
2023-12-16T09:50:14.785Z,97439.00
2023-12-16T09:51:14.797Z,97442.00
2023-12-16T09:52:14.841Z,97448.00
2023-12-16T09:53:14.854Z,97452.00
2023-12-16T09:54:14.835Z,97453.00
2023-12-16T09:55:14.896Z,97452.00
2023-12-16T09:56:14.856Z,97450.00
2023-12-16T09:57:14.911Z,97449.00
2023-12-16T09:58:14.992Z,97452.00
2023-12-16T09:59:15.020Z,97450.00
2023-12-16T10:00:15.118Z,97442.00
2023-12-16T10:01:15.208Z,97438.00
2023-12-16T10:02:15.248Z,97435.00
2023-12-16T10:03:15.259Z,97433.00
2023-12-16T10:04:15.272Z,97433.00
2023-12-16T10:05:15.315Z,97428.00
2023-12-16T10:06:15.348Z,97423.00
2023-12-16T10:07:15.476Z,97421.00
2023-12-16T10:08:15.421Z,97422.00
2023-12-16T10:09:15.487Z,97424.00
2023-12-16T10:10:15.546Z,97424.00
2023-12-16T10:11:15.563Z,97429.00
2023-12-16T10:12:15.558Z,97431.00
2023-12-16T10:13:15.714Z,97434.00
2023-12-16T10:14:15.668Z,97432.00
2023-12-16T10:15:15.676Z,97426.00
2023-12-16T10:16:15.762Z,97422.00
2023-12-16T10:17:15.754Z,97421.00
2023-12-16T10:18:15.889Z,97427.00
2023-12-16T10:19:15.867Z,97431.00
2023-12-16T10:20:15.838Z,97437.00
2023-12-16T10:21:19.478Z,97439.00
2023-12-16T10:22:17.042Z,97437.00
2023-12-16T10:23:15.856Z,97433.00
2023-12-16T10:24:15.872Z,97428.00
2023-12-16T10:25:15.888Z,97432.00
2023-12-16T10:26:15.891Z,97435.00
2023-12-16T10:27:15.844Z,97438.00
2023-12-16T10:28:15.893Z,97434.00
2023-12-16T10:29:15.878Z,97433.00
2023-12-16T10:30:15.877Z,97432.00
2023-12-16T10:31:16.015Z,97429.00
2023-12-16T10:32:15.915Z,97425.00
2023-12-16T10:33:15.927Z,97421.00
2023-12-16T10:34:15.910Z,97420.00
2023-12-16T10:35:15.887Z,97418.00
2023-12-16T10:36:15.915Z,97419.00
2023-12-16T10:37:15.916Z,97418.00
2023-12-16T10:38:15.882Z,97423.00
2023-12-16T10:39:15.888Z,97421.00
2023-12-16T10:40:16.127Z,97419.00
2023-12-16T10:41:15.850Z,97418.00
2023-12-16T10:42:15.856Z,97418.00
2023-12-16T10:43:15.868Z,97417.00
2023-12-16T10:44:15.862Z,97421.00
2023-12-16T10:45:15.856Z,97423.00
2023-12-16T10:46:15.940Z,97424.00
2023-12-16T10:47:15.895Z,97425.00
2023-12-16T10:48:15.960Z,97427.00
2023-12-16T10:49:15.986Z,97426.00
2023-12-16T10:50:15.912Z,97426.00
2023-12-16T10:51:15.921Z,97424.00
2023-12-16T10:52:15.985Z,97421.00
2023-12-16T10:53:15.988Z,97418.00
2023-12-16T10:54:15.974Z,97416.00
2023-12-16T10:55:16.146Z,97416.00
2023-12-16T10:56:16.076Z,97417.00
2023-12-16T10:57:16.037Z,97420.00
2023-12-16T10:58:16.078Z,97417.00
2023-12-16T10:59:16.095Z,97419.00
2023-12-16T11:00:16.078Z,97419.00
2023-12-16T11:01:16.200Z,97423.00
2023-12-16T11:02:16.106Z,97424.00
2023-12-16T11:03:16.189Z,97428.00
2023-12-16T11:04:16.217Z,97430.00
2023-12-16T11:05:16.240Z,97430.00
2023-12-16T11:06:16.216Z,97429.00
2023-12-16T11:07:16.259Z,97428.00
2023-12-16T11:08:16.220Z,97427.00
2023-12-16T11:09:16.253Z,97426.00
2023-12-16T11:10:16.249Z,97423.00
2023-12-16T11:11:16.238Z,97423.00
2023-12-16T11:12:16.285Z,97418.00
2023-12-16T11:13:16.271Z,97413.00
2023-12-16T11:14:16.285Z,97408.00
2023-12-16T11:15:16.277Z,97409.00
2023-12-16T11:16:16.337Z,97410.00
2023-12-16T11:17:16.286Z,97408.00
2023-12-16T11:18:16.386Z,97409.00
2023-12-16T11:19:16.398Z,97408.00
2023-12-16T11:20:16.354Z,97408.00
2023-12-16T11:21:16.356Z,97408.00
2023-12-16T11:22:16.446Z,97414.00
2023-12-16T11:23:16.356Z,97418.00
2023-12-16T11:24:16.381Z,97420.00
2023-12-16T11:25:16.437Z,97423.00
2023-12-16T11:26:16.463Z,97421.00
2023-12-16T11:27:16.392Z,97421.00
2023-12-16T11:28:16.431Z,97418.00
2023-12-16T11:29:16.383Z,97416.00
2023-12-16T11:30:16.475Z,97419.00
2023-12-16T11:31:16.556Z,97418.00
2023-12-16T11:32:16.477Z,97417.00
2023-12-16T11:33:16.627Z,97417.00
2023-12-16T11:34:16.630Z,97414.00
2023-12-16T11:35:16.569Z,97410.00
2023-12-16T11:36:16.585Z,97408.00
2023-12-16T11:37:16.729Z,97407.00
2023-12-16T11:38:16.683Z,97407.00
2023-12-16T11:39:16.727Z,97408.00
2023-12-16T11:40:16.771Z,97409.00
2023-12-16T11:41:16.791Z,97408.00
2023-12-16T11:42:16.846Z,97410.00
2023-12-16T11:43:16.974Z,97409.00
2023-12-16T11:44:16.976Z,97408.00
2023-12-16T11:45:17.030Z,97407.00
2023-12-16T11:46:17.114Z,97405.00
2023-12-16T11:47:17.148Z,97403.00
2023-12-16T11:48:17.378Z,97398.00
2023-12-16T11:49:17.435Z,97398.00
2023-12-16T11:50:17.352Z,97395.00
2023-12-16T11:51:17.409Z,97394.00
2023-12-16T11:52:17.501Z,97389.00
2023-12-16T11:53:17.576Z,97387.00
2023-12-16T11:54:17.600Z,97385.00
2023-12-16T11:55:17.668Z,97385.00
2023-12-16T11:56:17.697Z,97385.00
2023-12-16T11:57:17.763Z,97384.00
2023-12-16T11:58:17.817Z,97381.00
2023-12-16T11:59:17.884Z,97377.00
2023-12-16T12:00:17.920Z,97371.00
2023-12-16T12:01:18.084Z,97371.00
2023-12-16T12:02:17.984Z,97369.00
2023-12-16T12:03:18.046Z,97367.00
2023-12-16T12:04:18.142Z,97363.00
2023-12-16T12:05:18.381Z,97363.00
2023-12-16T12:06:18.188Z,97361.00
2023-12-16T12:07:18.278Z,97361.00
2023-12-16T12:08:18.265Z,97359.00
2023-12-16T12:09:18.269Z,97356.00
2023-12-16T12:10:18.389Z,97353.00
2023-12-16T12:11:18.353Z,97348.00
2023-12-16T12:12:18.431Z,97348.00
2023-12-16T12:13:18.449Z,97348.00
2023-12-16T12:14:18.514Z,97348.00
2023-12-16T12:15:20.653Z,97348.00
2023-12-16T12:16:18.596Z,97343.00
2023-12-16T12:17:18.614Z,97336.00
2023-12-16T12:18:18.704Z,97331.00
2023-12-16T12:19:18.780Z,97324.00
2023-12-16T12:20:18.709Z,97320.00
2023-12-16T12:21:18.745Z,97319.00
2023-12-16T12:22:18.742Z,97316.00
2023-12-16T12:23:18.793Z,97317.00
2023-12-16T12:24:18.818Z,97312.00
2023-12-16T12:26:18.870Z,97309.00
2023-12-16T12:27:18.895Z,97311.00
2023-12-16T12:28:18.891Z,97310.00
2023-12-16T12:29:18.921Z,97310.00
2023-12-16T12:30:19.138Z,97306.00
2023-12-16T12:31:18.989Z,97305.00
2023-12-16T12:32:19.091Z,97302.00
2023-12-16T12:33:19.091Z,97300.00
2023-12-16T12:34:19.144Z,97300.00
2023-12-16T12:35:19.155Z,97299.00
2023-12-16T12:36:19.065Z,97297.00
2023-12-16T12:37:19.064Z,97291.00
2023-12-16T12:38:19.068Z,97288.00
2023-12-16T12:39:19.069Z,97285.00
2023-12-16T12:40:19.191Z,97284.00
2023-12-16T12:41:19.070Z,97282.00
2023-12-16T12:42:19.087Z,97277.00
2023-12-16T12:43:19.103Z,97273.00
2023-12-16T12:44:19.090Z,97273.00
2023-12-16T12:45:19.172Z,97273.00
2023-12-16T12:46:19.199Z,97268.00
2023-12-16T12:47:19.187Z,97270.00
2023-12-16T12:48:19.371Z,97267.00
2023-12-16T12:49:19.436Z,97269.00
2023-12-16T12:50:19.299Z,97269.00
2023-12-16T12:51:19.362Z,97266.00
2023-12-16T12:52:19.429Z,97259.00
2023-12-16T12:53:23.524Z,97253.00
2023-12-16T12:54:20.461Z,97252.00
2023-12-16T12:55:19.446Z,97250.00
2023-12-16T12:56:19.429Z,97249.00
2023-12-16T12:57:19.444Z,97249.00
2023-12-16T12:58:23.434Z,97249.00
2023-12-16T12:59:58.166Z,97247.00
2023-12-16T13:00:20.450Z,97246.00
2023-12-16T13:01:19.563Z,97248.00
2023-12-16T13:02:19.473Z,97248.00
2023-12-16T13:03:19.580Z,97247.00
2023-12-16T13:04:19.528Z,97244.00
2023-12-16T13:05:19.522Z,97244.00
2023-12-16T13:06:19.557Z,97244.00
2023-12-16T13:07:19.447Z,97244.00
2023-12-16T13:08:19.494Z,97245.00
2023-12-16T13:09:19.541Z,97245.00
2023-12-16T13:10:19.482Z,97246.00
2023-12-16T13:11:19.470Z,97247.00
2023-12-16T13:12:19.482Z,97249.00
2023-12-16T13:13:19.464Z,97249.00
2023-12-16T13:14:26.723Z,97248.00
2023-12-16T13:15:20.529Z,97245.00
2023-12-16T13:16:19.518Z,97246.00
2023-12-16T13:17:19.542Z,97243.00
2023-12-16T13:18:19.546Z,97244.00
2023-12-16T13:19:19.645Z,97243.00
2023-12-16T13:20:19.495Z,97248.00
2023-12-16T13:21:19.596Z,97249.00
2023-12-16T13:22:19.491Z,97248.00
2023-12-16T13:23:19.512Z,97247.00
2023-12-16T13:24:19.512Z,97243.00
2023-12-16T13:25:19.512Z,97246.00
2023-12-16T13:26:19.527Z,97247.00
2023-12-16T13:27:19.542Z,97250.00
2023-12-16T13:28:19.732Z,97254.00
2023-12-16T13:29:19.606Z,97255.00
2023-12-16T13:30:19.774Z,97254.00
2023-12-16T13:31:19.698Z,97252.00
2023-12-16T13:32:19.766Z,97249.00
2023-12-16T13:33:19.788Z,97250.00
2023-12-16T13:34:19.805Z,97251.00
2023-12-16T13:35:19.735Z,97251.00
2023-12-16T13:36:33.829Z,97250.00
2023-12-16T13:37:20.790Z,97254.00
2023-12-16T13:38:19.763Z,97252.00
2023-12-16T13:39:19.787Z,97258.00
2023-12-16T13:40:19.776Z,97257.00
2023-12-16T13:41:19.769Z,97258.00
2023-12-16T13:42:19.823Z,97258.00
2023-12-16T13:43:19.772Z,97258.00
2023-12-16T13:44:19.774Z,97262.00
2023-12-16T13:45:19.812Z,97261.00
2023-12-16T13:46:19.801Z,97260.00
2023-12-16T13:47:19.771Z,97261.00
2023-12-16T13:48:20.007Z,97263.00
2023-12-16T13:49:19.909Z,97264.00
2023-12-16T13:50:19.796Z,97265.00
2023-12-16T13:51:19.842Z,97264.00
2023-12-16T13:52:19.881Z,97264.00
2023-12-16T13:53:19.791Z,97262.00
2023-12-16T13:54:19.992Z,97257.00
2023-12-16T13:55:19.792Z,97258.00
2023-12-16T13:56:19.792Z,97255.00
2023-12-16T13:57:19.778Z,97257.00
2023-12-16T13:58:19.804Z,97258.00
2023-12-16T13:59:19.821Z,97257.00
2023-12-16T14:00:19.848Z,97255.00
